x

Seal Rocks - Between Montague And Hinchinbrook Islands, Ak (46061) Wave Buoy

3:50pm - Sat 20th Sep 2014 All times are AKDT. -8 hours from GMT.

  • Sig Wave height 3.3ft
  • Swell Direction
  • Peak Period 7s
  • Average Period 7s
  • Wind
    11mph, 13mph gusts
  • Sea Temp 55°f
  • Air Temp 53°f
  • Sea Pressure 1003.8mb
  • Seal Rocks - Between Montague And Hinchinbrook Islands, Ak
  • Seal Rocks - Between Montague And Hinchinbrook Islands, Ak

More Historic Weather Station data

Upgrade to MSW Pro to gain access to the past 30 days of data for over 8000 Wavebouys and Weather Stations around the globe.

Join Pro

Comparision Forecast

View Surf forecast
   
Sat 09/20 3:50pm 3.5ft 7s 7s 11 13 mph 1003.8mb 55f 53f
2:50pm 3.5ft 8s 6s 16 18 mph 1003.7mb 55f 53f
1:50pm 3.5ft 10s 6s 16 18 mph 1003.5mb 55f 53f
12:50pm 4ft 9s 6s 2 4 mph 1003.2mb 54f 52f
11:50am 4ft 10s 6s 11 16 mph 1002.8mb 54f 51f
10:50am 4ft 8s 6s 18 22 mph 1002.2mb 54f 52f
9:50am 4ft 8s 5s 20 25 mph 1001.8mb 54f 53f
8:50am 4.5ft 8s 6s 18 22 mph 1001.8mb 54f 52f
7:50am 4.5ft 8s 6s 7 9 mph 1001.9mb 54f 52f
6:50am 4.5ft 8s 6s 7
mph
1001.8mb 54f 52f
5:50am 4.5ft 8s 6s 11 13 mph 1001.7mb 54f 52f
4:50am 5ft 9s 7s 4 7 mph 1001.9mb 54f 53f
3:50am 4.5ft 9s 6s 13 18 mph 1001.7mb 54f 52f
2:50am 5ft 11s 7s 9
mph
1001.7mb 54f 53f
1:50am 5ft 8s 7s 11 13 mph 1001.7mb 54f 54f
12:50am 5.5ft 11s 7s 13 16 mph 1001.7mb 54f 52f
Fri 09/19 11:50pm 5ft 9s 6s 11 13 mph 1001.4mb 54f 54f
10:50pm 5.5ft 11s 7s 13 18 mph 1001.4mb 55f 55f
9:50pm 6ft 11s 6s 18 20 mph 1001mb 56f 56f
8:50pm 6ft 8s 6s 22 25 mph 1000mb 56f 56f
7:50pm 7ft 6s 6s 27 34 mph 998.8mb 56f 56f
6:50pm 5.5ft 10s 5s 29 36 mph 997.1mb 56f 56f
5:50pm 4.5ft 11s 5s 29 36 mph 994.8mb 56f 55f
4:50pm 4ft 10s 6s 27 31 mph 993.3mb 56f 54f
3:50pm 4.5ft 11s 6s 13 16 mph 992.1mb 55f 55f
2:50pm 5ft 10s 6s 13 18 mph 991.2mb 56f 55f
1:50pm 4.5ft 10s 5s 29 34 mph 989.7mb 56f 54f
12:50pm 4.5ft 10s 6s 29 36 mph 988.7mb 56f 54f
11:50am 4ft 9s 6s 25 29 mph 988mb 56f 54f
10:50am 4ft 8s 6s 25 29 mph 987.6mb 55f 54f
9:50am 4ft 10s 6s 20 22 mph 987.1mb 55f 55f
8:50am 4.5ft 10s 7s 20 25 mph 986.3mb 55f 55f
7:50am 4.5ft 10s 6s 18 22 mph 985.9mb 55f 55f
6:50am 4.5ft 10s 6s 20 25 mph 985.2mb 55f 56f
5:50am 4ft 10s 6s 25 31 mph 984.2mb 55f 56f
4:50am 5ft 11s 6s 22 27 mph 983.6mb 55f 55f
3:50am 5ft 8s 6s 20 25 mph 983.2mb 56f 56f
2:50am 5ft 11s 6s 25 31 mph 982.5mb 56f 56f
1:50am 5ft 7s 6s 25 29 mph 982.2mb 56f 55f
12:50am 5.5ft 8s 6s 27 31 mph 981.6mb 56f 55f
Thu 09/18 11:50pm 6ft 11s 6s 27 31 mph 981.1mb 56f 54f
10:50pm 7ft 8s 7s 25 29 mph 981mb 55f 54f
9:50pm 6ft 8s 7s 27 31 mph 980.6mb 55f 54f
8:50pm 6ft 10s 7s 27 34 mph 980mb 55f 54f
7:50pm 6.5ft 8s 7s 27 34 mph 979.6mb 55f 54f
6:50pm 9ft 8s 7s 29 36 mph 979.5mb 55f 55f
5:50pm 8.5ft 10s 7s 31 38 mph 978.7mb 55f 54f
4:50pm 10ft 10s 8s 36 45 mph 978.3mb 55f 54f
3:50pm 10ft 10s 7s 34 43 mph 978.5mb 55f 54f
2:50pm 9.5ft 10s 7s 34 40 mph 978.6mb 55f 54f
1:50pm 10ft 9s 7s 31 38 mph 978.8mb 56f 54f
12:50pm 9ft 10s 7s 31 43 mph 979.3mb 55f 54f
11:50am 8ft 10s 7s 34 43 mph 979.6mb 55f 53f
10:50am 8.5ft 9s 6s 34 43 mph 980.1mb 55f 53f
9:50am 8ft 9s 6s 36 47 mph 980.5mb 55f 52f
8:50am 9.5ft 9s 6s 38 47 mph 981.2mb 55f 53f
7:50am 9ft 9s 6s 43 56 mph 981.6mb 56f 53f
6:50am 9.5ft 8s 6s 36 43 mph 982.5mb 55f 53f
5:50am 10ft 9s 6s 43 51 mph 983mb 55f 54f
4:50am 12ft 9s 7s 38 47 mph 983.7mb 56f 52f
3:50am 13.5ft 9s 7s 40 49 mph 984.6mb 56f 53f
2:50am 12.5ft 9s 7s 38 47 mph 985.7mb 56f 52f
1:50am 12.5ft 9s 7s 43 51 mph 986mb 56f 53f
12:50am 12ft 9s 7s 38 49 mph 986.7mb 56f 52f
Wed 09/17 11:50pm 13.5ft 9s 7s 43 51 mph 987.1mb 56f 53f
10:50pm 13ft 9s 7s 40 49 mph 987.8mb 55f 52f
9:50pm 11ft 8s 6s 43 51 mph 988.6mb 55f 52f
8:50pm 11ft 8s 6s 43 51 mph 988.6mb 55f 52f
7:50pm 10.5ft 8s 6s 38 47 mph 989.3mb 55f 51f
6:50pm 10ft 7s 6s 40 51 mph 989.7mb 55f 52f
5:50pm 11.5ft 8s 6s 38 47 mph 990.5mb 56f 52f
4:50pm 9ft 7s 6s 36 45 mph 992mb 56f 53f
3:50pm 9ft 7s 6s 34 40 mph 993.3mb 56f 53f
2:50pm 8ft 6s 5s 34 40 mph 994.4mb 56f 54f
1:50pm 7ft 6s 5s 31 38 mph 995.2mb 56f 54f
12:50pm 6.5ft 6s 5s 27 36 mph 996.2mb 55f 53f
11:50am 6ft 6s 5s 25 31 mph 997.2mb 55f 53f
10:50am 5ft 6s 5s 29 36 mph 997.3mb 55f 53f
9:50am 5ft 5s 5s 27 31 mph 998.1mb 55f 54f
8:50am 4.5ft 5s 5s 25 29 mph 998.8mb 55f 53f
7:50am 5ft 4s 4s 29 34 mph 999.3mb 56f 53f
6:50am 4ft 5s 4s 25 31 mph 999.9mb 56f 53f
5:50am 4ft 4s 4s 22 27 mph 1001mb 56f 55f
4:50am 3.5ft 4s 4s 20 25 mph 1001.8mb 55f 54f
3:50am 3.5ft 8s 5s 13 16 mph 1003.1mb 55f 55f
2:50am 3.5ft 10s 5s 16 18 mph 1003.9mb 55f 55f
1:50am 3.5ft 10s 6s 13 16 mph 1004.9mb 55f 55f